Cedar Grove, IN (47016)

1:19 AM EDT on September 05, 2015 (GMT -0400)
Klemmes Corner | | Change Station
CLOSE
Current Station
Personal Weather Station
Location: Brookville, IN
Elevation: 981 ft
Nearby Weather Stations

Elev 981 ft 39.35 °N, 85.00 °W | Updated 3 minutes ago

Mostly Cloudy
Mostly Cloudy
65.4 °F
Feels Like 65.4 °F
N
0.0
Wind Variable Wind from ESE
Gusts 1.0 mph

Today
High -- | Low -- °F
--% Chance of Precip.
Yesterday
High -- | Low -- °F
Precip. -- in
7:11 AM 8:04 PM
Waning Gibbous, 52% visible
Pressure 30.09 in
Visibility 9.0 miles
Clouds Clear
Dew Point 64 °F
Humidity 95%
Rainfall 1.11 in
Snow Depth Not available.
UV 0 out of 12
Pollen 9.90 out of 12
Air Quality Not available.
Flu Activity Not available.
METAR KHAO 050453Z AUTO 00000KT 9SM CLR 19/18 A3011 RMK AO2 SLP190 T01890183 403440189
Pressure 30.09 in
Visibility 9.0 miles
Clouds Clear
Dew Point 64 °F
Humidity 95%
Rainfall 1.11 in
Snow Depth Not available.
UV 0 out of 12
Pollen 9.90 out of 12
Air Quality Not available.
Flu Activity Not available.
METAR KHAO 050453Z AUTO 00000KT 9SM CLR 19/18 A3011 RMK AO2 SLP190 T01890183 403440189

10-Day Weather Forecast

×

Almanac

Astronomy

Sep. 05, 2015 Rise Set
Actual Time
Civil Twilight
Nautical Twilight
Astronomical Twilight
Moon
Length of Visible Light
Length of Day
Tomorrow will be .
, % of the Moon is Illuminated

Today's Extremes

State Highs State Lows

Community

WunderPhotos

Upload Photos

1,852,426 photos uploaded!

WunderBlogs® & News

Nearby

Air Quality

  Air Quality AQ Index Pollutant
Not available.

Snow Depth

Station Depth Elevation

Earthquake Activity

City Distance Mag. Time & Date
Minimum magnitude displayed is 2.5.

Coastal Water Temperatures

Place Temperature

Stations

Nearby Weather Stations

Station Location Temp. Windchill Dew Point Humidity Wind Precip. Elev Updated Type